Impacts TAF Board
For situational awareness. Not to be used for flight planning purposes.
IDs:

KFYV - Fayetteville/Drake F, AR, US

Issued at 2102 UTC 21 May 2022
Updated at 2204 UTC 21 May 2022
Potential Impact None Slight Moderate High
Time2153Z 21/23Z 22/00Z 22/01Z 22/02Z 22/03Z 22/04Z 22/05Z 22/06Z 22/07Z 22/08Z 22/09Z 22/10Z 22/11Z>>
Type OBS PRVL PRVL PRVL PRVL PRVL PRVL PRVL PRVL PRVL PRVL PRVL PRVL PRVL
VIS 5 >6 >6 >6 >6 >6 >6 >6 >6 >6 >6 >6 >6 >6
CIG 7 7 7 7 7 15 15 15 15 50 50 50 50 50
Cover OVC OVC OVC OVC OVC BKN BKN BKN BKN BKN BKN BKN BKN BKN
FltCat IFR IFR IFR IFR IFR MVFR MVFR MVFR MVFR VFR VFR VFR VFR VFR
WX BR VCSH VCSH VCSH VCSH -- -- -- -- -- -- -- -- --
WDir 360 350 350 350 350 10 10 10 10 10 10 10 10 10
WSpd 7 12 12 12 12 8 8 8 8 8 8 8 8 8
WGst -- -- -- -- -- -- -- -- -- -- -- -- -- --
WSHgt -- -- -- -- -- -- -- -- -- -- -- -- -- --
WSDir -- -- -- -- -- -- -- -- -- -- -- -- -- --
WSSpd -- -- -- -- -- -- -- -- -- -- -- -- -- --
R16/34
XWnd 1 0 0 0 0 3 3 3 3 3 3 3 3 3
HWnd -7 -12 -12 -12 -12 -7 -7 -7 -7 -7 -7 -7 -7 -7
Raw TAF
KFYV 212102Z 2121/2218 35012KT P6SM VCSH OVC007
  FM220300 01008KT P6SM BKN015
  FM220700 01008KT P6SM BKN050


Raw METAR
KFYV 212153Z 36007KT 5SM BR OVC007 14/13 A3002 RMK AO2 RAE11 CIG 006V010 SLP156 P0000 T01390128
KFYV 212053Z 33010KT 5SM -RA BR OVC006 14/13 A3001 RMK AO2 LTG DSNT E AND SE RAB43 SLP151 P0000 60000 T01440133 53018
KFYV 211953Z 32015G20KT 9SM OVC006 16/14 A2996 RMK AO2 LTG DSNT NE-SE RAE36 SLP134 P0000 T01560144

METAR Board
Radar Display
Forecast Discussion
For situational awareness. Not to be used for flight planning purposes.